createdAt,value
2023-01-30T00:01:33.567Z,100652.38
2023-01-30T00:04:01.178Z,100638.50
2023-01-30T00:06:28.860Z,100638.66
2023-01-30T00:08:56.089Z,100609.22
2023-01-30T00:11:23.640Z,100606.03
2023-01-30T00:13:51.978Z,100605.03
2023-01-30T00:16:19.457Z,100605.31
2023-01-30T00:18:46.854Z,100599.97
2023-01-30T00:21:15.675Z,100603.22
2023-01-30T00:23:43.841Z,100606.16
2023-01-30T00:26:12.759Z,100591.88
2023-01-30T00:28:40.699Z,100574.91
2023-01-30T00:31:08.751Z,100555.06
2023-01-30T00:33:39.529Z,100535.38
2023-01-30T00:36:07.517Z,100540.47
2023-01-30T00:38:34.737Z,100525.97
2023-01-30T00:41:02.153Z,100509.69
2023-01-30T00:43:49.023Z,100502.69
2023-01-30T00:46:51.404Z,100483.94
2023-01-30T00:49:19.226Z,100462.41
2023-01-30T00:51:46.842Z,100468.66
2023-01-30T00:54:14.295Z,100458.22
2023-01-30T00:56:41.413Z,100450.13
2023-01-30T00:59:08.769Z,100454.84
2023-01-30T01:01:35.979Z,100459.72
2023-01-30T01:04:03.346Z,100442.72
2023-01-30T01:06:30.529Z,100441.06
2023-01-30T01:08:57.860Z,100438.53
2023-01-30T01:11:25.070Z,100432.19
2023-01-30T01:13:59.161Z,100426.06
2023-01-30T01:16:28.482Z,100417.72
2023-01-30T01:18:55.839Z,100392.19
2023-01-30T01:21:23.833Z,100361.69
2023-01-30T01:23:54.734Z,100381.50
2023-01-30T01:26:22.398Z,100369.28
2023-01-30T01:28:50.021Z,100373.97
2023-01-30T01:31:17.868Z,100371.28
2023-01-30T01:33:45.088Z,100365.28
2023-01-30T01:36:19.989Z,100358.63
2023-01-30T01:38:58.104Z,100356.13
2023-01-30T01:41:25.558Z,100372.31
2023-01-30T01:44:14.447Z,100393.47
2023-01-30T01:46:55.702Z,100393.97
2023-01-30T01:49:35.756Z,100375.72
2023-01-30T01:52:13.341Z,100370.25
2023-01-30T01:55:07.459Z,100381.50
2023-01-30T01:57:51.375Z,100365.28
2023-01-30T02:00:22.113Z,100345.38
2023-01-30T02:03:12.700Z,100325.47
2023-01-30T02:05:48.432Z,100331.25
2023-01-30T02:08:24.193Z,100309.31
2023-01-30T02:11:37.598Z,100299.00
2023-01-30T02:14:06.533Z,100287.50
2023-01-30T02:16:33.666Z,100284.03
2023-01-30T02:19:00.878Z,100269.31
2023-01-30T02:22:30.669Z,100267.16
2023-01-30T02:26:03.745Z,100258.19
2023-01-30T02:29:34.284Z,100251.47
2023-01-30T02:32:46.721Z,100241.94
2023-01-30T02:36:03.840Z,100239.34
2023-01-30T02:39:24.987Z,100245.56
2023-01-30T02:42:32.148Z,100250.28
2023-01-30T02:45:32.668Z,100233.38
2023-01-30T02:48:06.650Z,100221.50
2023-01-30T02:50:45.425Z,100213.72
2023-01-30T02:53:13.283Z,100202.50
2023-01-30T02:55:42.997Z,100211.13
2023-01-30T02:58:11.385Z,100212.03
2023-01-30T03:01:20.789Z,100196.28
2023-01-30T03:04:11.916Z,100188.75
2023-01-30T03:07:18.663Z,100182.63
2023-01-30T03:10:02.011Z,100171.41
2023-01-30T03:12:55.821Z,100163.53
2023-01-30T03:15:50.896Z,100161.41
2023-01-30T03:18:20.148Z,100160.63
2023-01-30T03:20:47.926Z,100169.72
2023-01-30T03:23:15.305Z,100162.59
2023-01-30T03:25:44.848Z,100154.25
2023-01-30T03:28:20.208Z,100160.34
2023-01-30T03:30:47.775Z,100157.16
2023-01-30T03:33:14.995Z,100165.94
2023-01-30T03:35:43.287Z,100153.97
2023-01-30T03:38:11.041Z,100154.56
2023-01-30T03:40:39.224Z,100147.56
2023-01-30T03:43:06.397Z,100135.50
2023-01-30T03:45:33.822Z,100128.47
2023-01-30T03:48:00.943Z,100118.91
2023-01-30T03:50:29.405Z,100125.56
2023-01-30T03:52:56.611Z,100119.72
2023-01-30T03:55:27.013Z,100111.44
2023-01-30T03:57:58.365Z,100105.28
2023-01-30T04:00:25.815Z,100097.69
2023-01-30T04:02:54.915Z,100093.38
2023-01-30T04:05:22.209Z,100086.53
2023-01-30T04:07:51.458Z,100089.47
2023-01-30T04:10:20.172Z,100076.81
2023-01-30T04:12:47.919Z,100078.16
2023-01-30T04:15:15.274Z,100084.91
2023-01-30T04:17:44.760Z,100052.94
2023-01-30T04:20:12.138Z,100051.28
2023-01-30T04:22:39.357Z,100069.91
2023-01-30T04:25:06.868Z,100059.44
2023-01-30T04:27:34.160Z,100055.03
2023-01-30T04:30:01.362Z,100035.28
2023-01-30T04:32:28.463Z,100050.72
2023-01-30T04:34:55.610Z,100031.38
2023-01-30T04:37:22.840Z,100037.22
2023-01-30T04:39:50.213Z,100035.63
2023-01-30T04:42:17.378Z,100033.56
2023-01-30T04:44:44.512Z,100030.97
2023-01-30T04:47:11.946Z,100026.72
2023-01-30T04:49:39.122Z,100024.91
2023-01-30T04:52:06.513Z,100011.56
2023-01-30T04:54:36.111Z,100005.91
2023-01-30T04:57:03.657Z,100005.22
2023-01-30T04:59:30.727Z,100004.16
2023-01-30T05:01:57.925Z,100001.91
2023-01-30T05:04:25.107Z,100002.91
2023-01-30T05:06:52.190Z,99980.91
2023-01-30T05:09:19.601Z,99991.91
2023-01-30T05:11:46.817Z,99988.59
2023-01-30T05:14:14.075Z,99992.47
2023-01-30T05:16:41.923Z,99974.16
2023-01-30T05:19:12.633Z,99969.00
2023-01-30T05:21:40.035Z,99962.94
2023-01-30T05:24:07.675Z,99964.44
2023-01-30T05:26:34.816Z,99960.03
2023-01-30T05:29:02.707Z,99956.53
2023-01-30T05:31:29.840Z,99950.63
2023-01-30T05:33:57.461Z,99948.97
2023-01-30T05:36:24.988Z,99948.78
2023-01-30T05:38:52.200Z,99946.47
2023-01-30T05:41:19.725Z,99945.94
2023-01-30T05:43:51.168Z,99947.38
2023-01-30T05:46:18.601Z,99933.63
2023-01-30T05:48:45.918Z,99931.88
2023-01-30T05:51:20.656Z,99920.97
2023-01-30T05:53:49.028Z,99911.06
2023-01-30T05:56:17.310Z,99910.97
2023-01-30T05:58:50.681Z,99910.47
2023-01-30T06:01:18.401Z,99905.72
2023-01-30T06:03:48.174Z,99904.78
2023-01-30T06:06:15.762Z,99905.06
2023-01-30T06:08:43.187Z,99910.78
2023-01-30T06:11:15.780Z,99901.38
2023-01-30T06:13:43.807Z,99899.28
2023-01-30T06:16:17.633Z,99905.13
2023-01-30T06:18:47.494Z,99899.84
2023-01-30T06:21:16.335Z,99888.44
2023-01-30T06:23:43.794Z,99902.00
2023-01-30T06:26:11.368Z,99904.06
2023-01-30T06:28:38.707Z,99899.19
2023-01-30T06:31:09.445Z,99896.22
2023-01-30T06:33:37.452Z,99899.47
2023-01-30T06:36:05.383Z,99896.72
2023-01-30T06:38:32.541Z,99900.84
2023-01-30T06:40:59.716Z,99892.00
2023-01-30T06:43:26.998Z,99893.50
2023-01-30T06:45:54.309Z,99885.94
2023-01-30T06:48:21.553Z,99880.50
2023-01-30T06:50:51.487Z,99884.63
2023-01-30T06:53:19.491Z,99876.78
2023-01-30T06:55:47.043Z,99879.13
2023-01-30T06:58:15.520Z,99863.63
2023-01-30T07:00:43.828Z,99861.38
2023-01-30T07:03:17.381Z,99869.53
2023-01-30T07:05:47.822Z,99856.97
2023-01-30T07:08:16.970Z,99864.38
2023-01-30T07:10:45.413Z,99850.03
2023-01-30T07:13:13.488Z,99848.47
2023-01-30T07:15:40.964Z,99849.41
2023-01-30T07:18:08.302Z,99845.06
2023-01-30T07:20:35.582Z,99846.63
2023-01-30T07:23:03.511Z,99842.66
2023-01-30T07:25:34.263Z,99842.38
2023-01-30T07:28:03.097Z,99843.78
2023-01-30T07:30:36.066Z,99844.97
2023-01-30T07:33:06.642Z,99839.06
2023-01-30T07:35:37.433Z,99846.78
2023-01-30T07:38:06.006Z,99853.38
2023-01-30T07:40:33.836Z,99855.97
2023-01-30T07:43:12.626Z,99858.25
2023-01-30T07:45:48.821Z,99863.16
2023-01-30T07:48:19.627Z,99855.28
2023-01-30T07:50:47.288Z,99859.16
2023-01-30T07:53:18.696Z,99858.03
2023-01-30T07:55:47.422Z,99861.06
2023-01-30T07:58:16.106Z,99865.53
2023-01-30T08:00:46.891Z,99857.88
2023-01-30T08:03:17.017Z,99862.53
2023-01-30T08:05:47.090Z,99860.78
2023-01-30T08:08:14.838Z,99867.97
2023-01-30T08:10:43.135Z,99858.53
2023-01-30T08:13:10.413Z,99866.88
2023-01-30T08:15:37.907Z,99860.75
2023-01-30T08:18:07.221Z,99866.50
2023-01-30T08:20:34.644Z,99865.25
2023-01-30T08:23:05.756Z,99865.34
2023-01-30T08:25:33.173Z,99850.75
2023-01-30T08:28:00.586Z,99850.56
2023-01-30T08:30:30.501Z,99845.19
2023-01-30T08:32:58.639Z,99859.78
2023-01-30T08:35:25.910Z,99858.03
2023-01-30T08:37:53.162Z,99858.50
2023-01-30T08:40:20.835Z,99870.06
2023-01-30T08:42:48.137Z,99861.97
2023-01-30T08:45:15.556Z,99855.13
2023-01-30T08:47:43.038Z,99856.84
2023-01-30T08:50:11.453Z,99861.59
2023-01-30T08:52:39.030Z,99864.38
2023-01-30T08:55:07.237Z,99870.28
2023-01-30T08:57:34.703Z,99859.53
2023-01-30T09:00:02.491Z,99870.81
2023-01-30T09:02:29.784Z,99871.56
2023-01-30T09:04:57.057Z,99861.84
2023-01-30T09:07:24.327Z,99860.06
2023-01-30T09:09:52.101Z,99867.94
2023-01-30T09:12:19.348Z,99869.09
2023-01-30T09:14:46.577Z,99864.75
2023-01-30T09:17:14.823Z,99866.41
2023-01-30T09:19:42.055Z,99862.41
2023-01-30T09:22:09.537Z,99858.66
2023-01-30T09:24:37.148Z,99867.19
2023-01-30T09:27:07.247Z,99870.00
2023-01-30T09:29:34.545Z,99870.44
2023-01-30T09:32:01.921Z,99866.31
2023-01-30T09:34:29.231Z,99867.13
2023-01-30T09:37:04.399Z,99873.78
2023-01-30T09:39:31.829Z,99867.25
2023-01-30T09:42:04.672Z,99863.00
2023-01-30T09:45:21.959Z,99869.19
2023-01-30T09:48:13.618Z,99866.13
2023-01-30T09:51:40.037Z,99858.00
2023-01-30T09:54:45.365Z,99850.13
2023-01-30T09:57:23.897Z,99839.25
2023-01-30T10:00:19.720Z,99848.47
2023-01-30T10:03:09.259Z,99845.16
2023-01-30T10:06:04.844Z,99852.63
2023-01-30T10:09:25.186Z,99849.41
2023-01-30T10:12:37.768Z,99848.88
2023-01-30T10:15:23.685Z,99839.44
2023-01-30T10:18:09.053Z,99847.00
2023-01-30T10:21:21.843Z,99837.94
2023-01-30T10:24:34.168Z,99833.09
2023-01-30T10:27:03.727Z,99844.00
2023-01-30T10:29:39.990Z,99829.72
2023-01-30T10:32:28.879Z,99842.91
2023-01-30T10:35:06.238Z,99835.25
2023-01-30T10:37:45.754Z,99837.84
2023-01-30T10:40:49.175Z,99830.47
2023-01-30T10:43:32.862Z,99838.69
2023-01-30T10:46:17.840Z,99830.41
2023-01-30T10:49:16.784Z,99828.59
2023-01-30T10:52:16.976Z,99831.88
2023-01-30T10:55:12.129Z,99813.03
2023-01-30T10:58:06.019Z,99812.78
2023-01-30T11:00:43.262Z,99822.78
2023-01-30T11:03:44.266Z,99820.59
2023-01-30T11:06:26.498Z,99817.44
2023-01-30T11:08:55.744Z,99813.44
2023-01-30T11:11:51.381Z,99798.06
2023-01-30T11:14:18.697Z,99792.16
2023-01-30T11:16:57.625Z,99790.53
2023-01-30T11:19:34.405Z,99775.16
2023-01-30T11:22:05.617Z,99770.94
2023-01-30T11:24:41.135Z,99760.31
2023-01-30T11:27:36.244Z,99757.47
2023-01-30T11:30:37.445Z,99754.84
2023-01-30T11:33:23.010Z,99746.81
2023-01-30T11:36:23.683Z,99734.63
2023-01-30T11:39:28.676Z,99737.75
2023-01-30T11:41:55.575Z,99734.69
2023-01-30T11:44:33.816Z,99740.53
2023-01-30T11:48:29.409Z,99737.75
2023-01-30T11:51:06.866Z,99725.56
2023-01-30T11:53:59.198Z,99734.31
2023-01-30T11:56:44.962Z,99734.94
2023-01-30T11:59:34.622Z,99725.69
2023-01-30T12:02:20.164Z,99725.28
2023-01-30T12:04:59.497Z,99718.47
2023-01-30T12:07:35.196Z,99720.84
2023-01-30T12:10:25.212Z,99720.84
2023-01-30T12:12:56.914Z,99721.59
2023-01-30T12:15:33.823Z,99721.31
2023-01-30T12:18:28.313Z,99710.69
2023-01-30T12:21:26.471Z,99721.78
2023-01-30T12:24:31.101Z,99711.50
2023-01-30T12:27:47.165Z,99719.88
2023-01-30T12:30:58.255Z,99703.81
2023-01-30T12:33:33.279Z,99696.00
2023-01-30T12:36:47.631Z,99693.97
2023-01-30T12:39:58.053Z,99682.81
2023-01-30T12:43:10.864Z,99680.94
2023-01-30T12:46:54.908Z,99683.66
2023-01-30T12:49:50.457Z,99688.88
2023-01-30T12:52:57.385Z,99682.03
2023-01-30T12:56:41.422Z,99681.03
2023-01-30T12:59:33.405Z,99684.44
2023-01-30T13:02:40.375Z,99681.25
2023-01-30T13:05:32.329Z,99675.81
2023-01-30T13:08:20.605Z,99676.78
2023-01-30T13:11:14.818Z,99673.09
2023-01-30T13:14:37.990Z,99672.19
2023-01-30T13:17:24.765Z,99669.22
2023-01-30T13:20:17.890Z,99673.94
2023-01-30T13:23:16.154Z,99665.09
2023-01-30T13:26:16.260Z,99668.06
2023-01-30T13:29:20.703Z,99659.41
2023-01-30T13:31:56.865Z,99647.59
2023-01-30T13:34:44.969Z,99641.09
2023-01-30T13:37:36.017Z,99638.16
2023-01-30T13:40:36.074Z,99635.78
2023-01-30T13:43:13.667Z,99631.19
2023-01-30T13:45:48.248Z,99638.38
2023-01-30T13:48:49.338Z,99615.22
2023-01-30T13:52:03.814Z,99615.00
2023-01-30T13:55:12.997Z,99626.81
2023-01-30T13:58:08.756Z,99626.28
2023-01-30T14:00:37.010Z,99637.38
2023-01-30T14:03:04.064Z,99655.97
2023-01-30T14:06:00.673Z,99643.81
2023-01-30T14:08:44.754Z,99656.41
2023-01-30T14:11:36.528Z,99672.91
2023-01-30T14:14:29.775Z,99677.69
2023-01-30T14:17:16.517Z,99699.41
2023-01-30T14:19:59.571Z,99716.69
2023-01-30T14:23:18.432Z,99727.09
2023-01-30T14:25:53.051Z,99727.50
2023-01-30T14:28:20.426Z,99726.41
2023-01-30T14:30:55.941Z,99737.06
2023-01-30T14:33:28.722Z,99746.00
2023-01-30T14:35:58.847Z,99744.31
2023-01-30T14:38:38.293Z,99777.41
2023-01-30T14:41:05.365Z,99763.66
2023-01-30T14:43:42.408Z,99771.63
2023-01-30T14:46:32.571Z,99769.03
2023-01-30T14:49:29.427Z,99762.81
2023-01-30T14:51:56.904Z,99769.47
2023-01-30T14:54:41.898Z,99785.00
2023-01-30T14:57:32.762Z,99784.81
2023-01-30T15:00:19.779Z,99795.50
2023-01-30T15:02:58.309Z,99801.78
2023-01-30T15:05:38.947Z,99782.97
2023-01-30T15:08:26.706Z,99796.44
2023-01-30T15:11:26.268Z,99809.28
2023-01-30T15:14:07.524Z,99793.00
2023-01-30T15:17:24.391Z,99786.38
2023-01-30T15:20:17.738Z,99796.22
2023-01-30T15:23:20.359Z,99803.47
2023-01-30T15:26:15.380Z,99813.00
2023-01-30T15:29:02.820Z,99813.63
2023-01-30T15:31:29.827Z,99806.59
2023-01-30T15:33:57.390Z,99807.72
2023-01-30T15:36:29.495Z,99815.41
2023-01-30T15:39:16.826Z,99823.06
2023-01-30T15:41:44.503Z,99818.63
2023-01-30T15:44:43.391Z,99828.97
2023-01-30T15:48:01.655Z,99831.47
2023-01-30T15:50:28.787Z,99837.41
2023-01-30T15:52:57.980Z,99832.59
2023-01-30T15:55:34.008Z,99847.41
2023-01-30T15:58:19.585Z,99849.81
2023-01-30T16:00:51.753Z,99849.91
2023-01-30T16:03:28.846Z,99832.56
2023-01-30T16:05:58.415Z,99844.28
2023-01-30T16:08:29.073Z,99852.19
2023-01-30T16:10:56.799Z,99862.28
2023-01-30T16:13:25.159Z,99860.66
2023-01-30T16:16:02.953Z,99868.09
2023-01-30T16:18:49.523Z,99862.72
2023-01-30T16:21:35.262Z,99866.53
2023-01-30T16:24:14.033Z,99882.22
2023-01-30T16:26:46.418Z,99904.81
2023-01-30T16:29:32.351Z,99898.88
2023-01-30T16:31:59.940Z,99892.72
2023-01-30T16:34:37.445Z,99903.84
2023-01-30T16:37:27.141Z,99904.69
2023-01-30T16:40:16.845Z,99909.19
2023-01-30T16:42:56.981Z,99922.78
2023-01-30T16:45:53.069Z,99915.09
2023-01-30T16:48:19.993Z,99928.56
2023-01-30T16:51:33.428Z,99931.25
2023-01-30T16:54:04.598Z,99936.66
2023-01-30T16:56:35.989Z,99948.31
2023-01-30T16:59:03.879Z,99944.88
2023-01-30T17:01:41.291Z,99937.25
2023-01-30T17:04:21.273Z,99959.03
2023-01-30T17:07:04.687Z,99977.16
2023-01-30T17:09:38.831Z,99979.63
2023-01-30T17:12:25.677Z,99981.84
2023-01-30T17:15:21.869Z,99976.78
2023-01-30T17:17:49.380Z,99990.56
2023-01-30T17:20:19.644Z,99988.78
2023-01-30T17:22:52.327Z,99982.59
2023-01-30T17:25:42.968Z,99992.94
2023-01-30T17:28:21.256Z,99990.59
2023-01-30T17:30:50.441Z,100000.56
2023-01-30T17:33:17.627Z,100002.03
2023-01-30T17:35:45.692Z,100017.97
2023-01-30T17:38:13.101Z,100019.03
2023-01-30T17:40:42.826Z,100021.31
2023-01-30T17:43:11.541Z,100015.53
2023-01-30T17:45:38.667Z,100028.75
2023-01-30T17:48:06.368Z,100033.53
2023-01-30T17:50:33.313Z,100047.81
2023-01-30T17:53:00.221Z,100046.63
2023-01-30T17:55:27.194Z,100053.06
2023-01-30T17:57:54.970Z,100050.88
2023-01-30T18:00:22.988Z,100048.81
2023-01-30T18:02:50.131Z,100067.69
2023-01-30T18:05:17.138Z,100064.22
2023-01-30T18:07:44.641Z,100062.91
2023-01-30T18:10:20.160Z,100074.25
2023-01-30T18:12:47.308Z,100074.03
2023-01-30T18:15:15.999Z,100081.47
2023-01-30T18:17:47.837Z,100094.31
2023-01-30T18:20:19.850Z,100107.09
2023-01-30T18:22:47.152Z,100117.81
2023-01-30T18:25:15.529Z,100130.88
2023-01-30T18:27:44.584Z,100111.16
2023-01-30T18:30:17.261Z,100121.34
2023-01-30T18:32:53.695Z,100114.47
2023-01-30T18:35:22.981Z,100131.03
2023-01-30T18:37:50.522Z,100136.53
2023-01-30T18:40:20.144Z,100137.19
2023-01-30T18:42:47.651Z,100149.66
2023-01-30T18:45:17.280Z,100146.56
2023-01-30T18:47:44.198Z,100153.03
2023-01-30T18:50:11.750Z,100163.00
2023-01-30T18:52:40.982Z,100175.31
2023-01-30T18:55:08.588Z,100169.44
2023-01-30T18:57:35.514Z,100170.69
2023-01-30T19:00:02.889Z,100177.53
2023-01-30T19:02:29.935Z,100168.28
2023-01-30T19:04:56.927Z,100175.81
2023-01-30T19:07:23.976Z,100180.13
2023-01-30T19:09:50.859Z,100192.00
2023-01-30T19:12:36.662Z,100203.19
2023-01-30T19:15:05.045Z,100206.81
2023-01-30T19:17:31.975Z,100193.31
2023-01-30T19:20:01.814Z,100208.09
2023-01-30T19:22:28.722Z,100220.19
2023-01-30T19:24:55.788Z,100219.97
2023-01-30T19:27:23.549Z,100231.84
2023-01-30T19:29:50.583Z,100231.44
2023-01-30T19:32:17.586Z,100238.53
2023-01-30T19:34:49.889Z,100239.44
2023-01-30T19:37:16.979Z,100255.66
2023-01-30T19:39:43.913Z,100257.78
2023-01-30T19:42:10.847Z,100266.75
2023-01-30T19:44:37.789Z,100277.13
2023-01-30T19:47:04.762Z,100287.22
2023-01-30T19:49:33.531Z,100280.78
2023-01-30T19:52:02.625Z,100276.31
2023-01-30T19:54:29.823Z,100278.44
2023-01-30T19:56:56.887Z,100284.19
2023-01-30T19:59:27.200Z,100289.56
2023-01-30T20:01:54.703Z,100296.69
2023-01-30T20:04:21.644Z,100288.16
2023-01-30T20:06:49.762Z,100277.53
2023-01-30T20:09:17.559Z,100288.91
2023-01-30T20:11:44.856Z,100314.25
2023-01-30T20:14:12.095Z,100319.66
2023-01-30T20:16:40.049Z,100317.41
2023-01-30T20:19:17.024Z,100314.47
2023-01-30T20:21:45.123Z,100326.09
2023-01-30T20:24:16.516Z,100333.31
2023-01-30T20:26:47.132Z,100335.91
2023-01-30T20:29:17.395Z,100339.63
2023-01-30T20:31:44.570Z,100346.47
2023-01-30T20:34:14.206Z,100355.91
2023-01-30T20:36:41.856Z,100350.53
2023-01-30T20:39:09.549Z,100357.91
2023-01-30T20:41:38.627Z,100352.56
2023-01-30T20:44:11.235Z,100360.78
2023-01-30T20:46:42.532Z,100365.28
2023-01-30T20:49:23.055Z,100373.81
2023-01-30T20:51:52.892Z,100371.94
2023-01-30T20:54:23.363Z,100370.47
2023-01-30T20:56:53.845Z,100376.97
2023-01-30T20:59:24.587Z,100381.81
2023-01-30T21:01:53.201Z,100385.31
2023-01-30T21:04:24.538Z,100399.16
2023-01-30T21:06:51.970Z,100409.22
2023-01-30T21:09:23.393Z,100420.50
2023-01-30T21:11:52.990Z,100408.38
2023-01-30T21:14:20.066Z,100407.56
2023-01-30T21:16:47.622Z,100407.72
2023-01-30T21:19:17.163Z,100421.22
2023-01-30T21:21:53.302Z,100425.09
2023-01-30T21:24:28.233Z,100440.66
2023-01-30T21:26:56.280Z,100444.34
2023-01-30T21:29:28.039Z,100446.13
2023-01-30T21:31:57.405Z,100453.09
2023-01-30T21:34:24.497Z,100465.88
2023-01-30T21:37:10.112Z,100486.72
2023-01-30T21:39:55.795Z,100468.91
2023-01-30T21:42:41.538Z,100495.75
2023-01-30T21:45:08.932Z,100495.16
2023-01-30T21:47:36.751Z,100497.06
2023-01-30T21:50:04.411Z,100490.56
2023-01-30T21:52:33.315Z,100488.81
2023-01-30T21:55:00.432Z,100499.66
2023-01-30T21:57:27.426Z,100514.03
2023-01-30T21:59:54.363Z,100516.72
2023-01-30T22:02:21.431Z,100522.75
2023-01-30T22:04:48.851Z,100527.25
2023-01-30T22:07:18.860Z,100539.47
2023-01-30T22:09:46.326Z,100550.84
2023-01-30T22:12:14.542Z,100550.75
2023-01-30T22:14:41.748Z,100547.25
2023-01-30T22:17:11.878Z,100563.34
2023-01-30T22:19:38.903Z,100562.50
2023-01-30T22:22:06.710Z,100560.28
2023-01-30T22:24:33.834Z,100559.59
2023-01-30T22:27:00.914Z,100566.47
2023-01-30T22:29:29.065Z,100567.38
2023-01-30T22:31:56.141Z,100577.47
2023-01-30T22:34:23.107Z,100574.22
2023-01-30T22:36:50.813Z,100573.75
2023-01-30T22:39:17.860Z,100582.69
2023-01-30T22:41:44.832Z,100591.13
2023-01-30T22:44:11.837Z,100590.81
2023-01-30T22:46:41.548Z,100586.88
2023-01-30T22:49:09.773Z,100584.75
2023-01-30T22:51:41.033Z,100583.25
2023-01-30T22:54:16.732Z,100586.16
2023-01-30T22:56:48.774Z,100586.03
2023-01-30T22:59:16.058Z,100593.47
2023-01-30T23:01:47.661Z,100601.31
2023-01-30T23:04:21.156Z,100609.47
2023-01-30T23:06:51.338Z,100607.00
2023-01-30T23:09:23.207Z,100605.34
2023-01-30T23:12:14.280Z,100610.00
2023-01-30T23:14:42.746Z,100607.47
2023-01-30T23:17:29.089Z,100617.31
2023-01-30T23:19:56.941Z,100621.56
2023-01-30T23:22:24.272Z,100610.69
2023-01-30T23:24:51.718Z,100632.44
2023-01-30T23:27:21.043Z,100624.81
2023-01-30T23:29:48.390Z,100632.84
2023-01-30T23:32:18.977Z,100622.69
2023-01-30T23:34:47.639Z,100624.16
2023-01-30T23:37:15.676Z,100633.75
2023-01-30T23:39:42.838Z,100633.97
2023-01-30T23:42:09.967Z,100635.41
2023-01-30T23:44:36.928Z,100637.66
2023-01-30T23:47:03.949Z,100637.84
2023-01-30T23:49:30.870Z,100646.13
2023-01-30T23:51:57.858Z,100647.22
2023-01-30T23:54:25.010Z,100643.22
2023-01-30T23:56:53.952Z,100641.56
2023-01-30T23:59:23.948Z,100635.78
